createdAt,value
2023-01-19T00:01:41.542Z,6.30
2023-01-19T00:04:08.755Z,6.37
2023-01-19T00:06:36.141Z,7.47
2023-01-19T00:09:03.523Z,7.67
2023-01-19T00:11:30.736Z,7.13
2023-01-19T00:13:58.945Z,8.83
2023-01-19T00:16:26.351Z,7.77
2023-01-19T00:18:53.748Z,7.27
2023-01-19T00:21:24.728Z,7.20
2023-01-19T00:23:52.873Z,7.13
2023-01-19T00:26:22.415Z,6.57
2023-01-19T00:28:50.736Z,6.87
2023-01-19T00:31:20.655Z,7.57
2023-01-19T00:33:52.785Z,7.05
2023-01-19T00:36:20.357Z,7.63
2023-01-19T00:38:47.679Z,7.53
2023-01-19T00:41:14.995Z,8.10
2023-01-19T00:43:42.233Z,8.27
2023-01-19T00:46:09.772Z,9.13
2023-01-19T00:48:37.045Z,8.60
2023-01-19T00:51:04.431Z,8.83
2023-01-19T00:53:32.691Z,7.03
2023-01-19T00:56:02.222Z,8.00
2023-01-19T00:58:29.513Z,8.70
2023-01-19T01:01:03.617Z,8.47
2023-01-19T01:03:31.162Z,7.73
2023-01-19T01:05:58.904Z,7.90
2023-01-19T01:08:26.099Z,8.50
2023-01-19T01:10:53.272Z,9.00
2023-01-19T01:13:22.402Z,9.03
2023-01-19T01:15:53.486Z,8.25
2023-01-19T01:18:21.635Z,8.23
2023-01-19T01:20:49.039Z,7.37
2023-01-19T01:23:16.389Z,8.47
2023-01-19T01:25:43.720Z,8.45
2023-01-19T01:28:10.899Z,8.17
2023-01-19T01:30:41.297Z,6.80
2023-01-19T01:33:08.962Z,6.63
2023-01-19T01:35:36.196Z,6.93
2023-01-19T01:38:04.044Z,7.03
2023-01-19T01:40:31.422Z,7.07
2023-01-19T01:42:58.906Z,6.93
2023-01-19T01:45:35.386Z,6.60
2023-01-19T01:48:16.097Z,7.07
2023-01-19T01:51:22.246Z,6.65
2023-01-19T01:54:14.816Z,7.00
2023-01-19T01:56:48.945Z,7.05
2023-01-19T01:59:40.109Z,7.70
2023-01-19T02:02:34.715Z,6.80
2023-01-19T02:05:09.536Z,6.97
2023-01-19T02:08:26.160Z,7.20
2023-01-19T02:11:14.164Z,7.73
2023-01-19T02:13:47.054Z,8.07
2023-01-19T02:16:16.780Z,8.20
2023-01-19T02:18:45.436Z,7.93
2023-01-19T02:21:38.614Z,7.73
2023-01-19T02:24:10.967Z,8.73
2023-01-19T02:26:47.012Z,14.57
2023-01-19T02:29:21.554Z,13.70
2023-01-19T02:31:48.882Z,13.47
2023-01-19T02:34:20.160Z,12.27
2023-01-19T02:36:59.095Z,12.47
2023-01-19T02:39:38.916Z,18.73
2023-01-19T02:42:27.433Z,32.17
2023-01-19T02:44:57.283Z,30.63
2023-01-19T02:47:25.089Z,29.63
2023-01-19T02:50:00.843Z,20.40
2023-01-19T02:52:28.604Z,19.43
2023-01-19T02:55:32.499Z,20.93
2023-01-19T02:58:26.733Z,15.03
2023-01-19T03:01:19.024Z,13.82
2023-01-19T03:04:17.861Z,12.63
2023-01-19T03:06:59.796Z,9.38
2023-01-19T03:09:42.155Z,7.40
2023-01-19T03:12:24.661Z,6.90
2023-01-19T03:14:59.231Z,6.37
2023-01-19T03:17:30.050Z,6.47
2023-01-19T03:22:29.578Z,7.03
2023-01-19T03:25:01.481Z,7.25
2023-01-19T03:27:40.889Z,9.00
2023-01-19T03:30:29.025Z,8.07
2023-01-19T03:33:03.376Z,8.77
2023-01-19T03:35:34.895Z,9.13
2023-01-19T03:38:08.723Z,8.27
2023-01-19T03:40:36.871Z,8.73
2023-01-19T03:43:05.362Z,8.40
2023-01-19T03:45:36.890Z,9.27
2023-01-19T03:48:06.140Z,7.47
2023-01-19T03:50:33.473Z,7.90
2023-01-19T03:53:13.117Z,7.67
2023-01-19T03:55:45.610Z,8.10
2023-01-19T03:58:13.096Z,7.85
2023-01-19T04:00:40.832Z,9.20
2023-01-19T04:03:15.537Z,10.18
2023-01-19T04:05:43.453Z,10.73
2023-01-19T04:08:12.021Z,12.50
2023-01-19T04:10:39.317Z,13.70
2023-01-19T04:13:06.763Z,15.53
2023-01-19T04:15:34.167Z,11.37
2023-01-19T04:18:01.790Z,7.87
2023-01-19T04:20:29.447Z,7.50
2023-01-19T04:23:00.732Z,7.90
2023-01-19T04:25:29.374Z,13.07
2023-01-19T04:27:59.780Z,17.08
2023-01-19T04:30:27.913Z,13.32
2023-01-19T04:32:56.337Z,9.93
2023-01-19T04:35:23.797Z,8.75
2023-01-19T04:37:54.203Z,9.57
2023-01-19T04:40:21.359Z,11.02
2023-01-19T04:42:48.651Z,11.13
2023-01-19T04:45:15.994Z,10.32
2023-01-19T04:47:43.275Z,9.83
2023-01-19T04:50:12.073Z,7.93
2023-01-19T04:52:40.235Z,6.35
2023-01-19T04:55:08.801Z,8.88
2023-01-19T04:57:36.154Z,8.80
2023-01-19T05:00:07.573Z,9.40
2023-01-19T05:02:35.825Z,10.00
2023-01-19T05:05:04.745Z,11.02
2023-01-19T05:07:31.983Z,11.13
2023-01-19T05:09:59.143Z,10.40
2023-01-19T05:12:26.458Z,11.80
2023-01-19T05:14:54.020Z,10.63
2023-01-19T05:17:21.153Z,11.13
2023-01-19T05:19:49.007Z,10.93
2023-01-19T05:22:16.636Z,10.80
2023-01-19T05:24:43.891Z,10.50
2023-01-19T05:27:13.742Z,10.13
2023-01-19T05:29:43.227Z,9.50
2023-01-19T05:32:10.435Z,11.17
2023-01-19T05:34:37.670Z,10.77
2023-01-19T05:37:07.347Z,12.37
2023-01-19T05:39:37.579Z,12.47
2023-01-19T05:42:04.963Z,15.15
2023-01-19T05:44:32.097Z,13.50
2023-01-19T05:46:59.392Z,14.17
2023-01-19T05:49:26.719Z,14.13
2023-01-19T05:51:53.993Z,15.00
2023-01-19T05:54:21.441Z,15.17
2023-01-19T05:56:48.704Z,16.30
2023-01-19T05:59:23.998Z,15.50
2023-01-19T06:01:53.192Z,14.63
2023-01-19T06:04:21.504Z,16.00
2023-01-19T06:06:50.272Z,15.30
2023-01-19T06:09:18.267Z,16.20
2023-01-19T06:11:47.015Z,15.27
2023-01-19T06:14:14.284Z,15.20
2023-01-19T06:16:41.671Z,15.30
2023-01-19T06:19:09.450Z,15.73
2023-01-19T06:21:36.631Z,14.33
2023-01-19T06:24:04.214Z,15.40
2023-01-19T06:26:31.430Z,14.77
2023-01-19T06:28:58.635Z,15.63
2023-01-19T06:31:28.849Z,14.13
2023-01-19T06:33:56.153Z,16.70
2023-01-19T06:36:23.505Z,16.57
2023-01-19T06:38:50.695Z,15.70
2023-01-19T06:41:17.930Z,16.17
2023-01-19T06:43:45.083Z,15.93
2023-01-19T06:46:13.508Z,17.30
2023-01-19T06:48:40.814Z,16.07
2023-01-19T06:51:08.157Z,16.53
2023-01-19T06:53:35.431Z,17.20
2023-01-19T06:56:04.331Z,16.70
2023-01-19T06:58:32.374Z,15.90
2023-01-19T07:01:04.955Z,18.07
2023-01-19T07:03:33.234Z,17.20
2023-01-19T07:06:02.544Z,18.27
2023-01-19T07:08:30.572Z,17.37
2023-01-19T07:11:26.649Z,16.90
2023-01-19T07:13:57.622Z,19.67
2023-01-19T07:16:25.146Z,20.73
2023-01-19T07:18:52.442Z,24.90
2023-01-19T07:21:19.680Z,24.43
2023-01-19T07:23:53.775Z,27.10
2023-01-19T07:26:22.194Z,25.87
2023-01-19T07:28:50.185Z,28.37
2023-01-19T07:31:18.334Z,29.40
2023-01-19T07:33:46.069Z,31.90
2023-01-19T07:36:13.726Z,35.13
2023-01-19T07:38:40.894Z,35.47
2023-01-19T07:41:10.398Z,36.70
2023-01-19T07:43:37.704Z,39.30
2023-01-19T07:46:07.318Z,38.97
2023-01-19T07:48:34.766Z,42.87
2023-01-19T07:51:11.721Z,42.60
2023-01-19T07:53:40.241Z,41.37
2023-01-19T07:56:07.954Z,41.30
2023-01-19T07:58:35.166Z,42.73
2023-01-19T08:01:10.957Z,41.43
2023-01-19T08:03:39.044Z,44.43
2023-01-19T08:06:07.097Z,44.07
2023-01-19T08:08:34.879Z,44.20
2023-01-19T08:11:09.681Z,44.50
2023-01-19T08:13:36.919Z,44.87
2023-01-19T08:16:05.084Z,44.27
2023-01-19T08:18:32.396Z,44.17
2023-01-19T08:21:00.349Z,43.73
2023-01-19T08:23:28.187Z,45.33
2023-01-19T08:25:55.484Z,43.70
2023-01-19T08:28:22.803Z,42.27
2023-01-19T08:30:56.290Z,40.57
2023-01-19T08:33:25.375Z,40.75
2023-01-19T08:35:54.418Z,39.57
2023-01-19T08:38:21.715Z,39.63
2023-01-19T08:40:49.366Z,37.87
2023-01-19T08:43:17.856Z,33.83
2023-01-19T08:45:51.620Z,33.33
2023-01-19T08:48:22.443Z,30.42
2023-01-19T08:53:19.220Z,28.40
2023-01-19T08:55:47.007Z,29.70
2023-01-19T08:58:14.164Z,27.97
2023-01-19T09:00:41.946Z,27.60
2023-01-19T09:03:12.800Z,28.03
2023-01-19T09:05:40.921Z,28.42
2023-01-19T09:08:13.040Z,28.93
2023-01-19T09:10:50.041Z,25.43
2023-01-19T09:13:19.024Z,26.17
2023-01-19T09:15:46.998Z,48.50
2023-01-19T09:18:18.920Z,27.83
2023-01-19T09:20:48.576Z,24.70
2023-01-19T09:23:19.557Z,23.30
2023-01-19T09:25:48.454Z,100.53
2023-01-19T09:28:17.771Z,35.70
2023-01-19T09:30:45.612Z,26.73
2023-01-19T09:33:16.942Z,26.23
2023-01-19T09:35:47.075Z,27.53
2023-01-19T09:38:20.442Z,28.15
2023-01-19T09:40:55.281Z,30.33
2023-01-19T09:43:47.525Z,31.10
2023-01-19T09:46:22.896Z,35.80
2023-01-19T09:48:59.878Z,25.93
2023-01-19T09:51:33.935Z,24.47
2023-01-19T09:54:04.311Z,23.20
2023-01-19T09:56:32.985Z,22.17
2023-01-19T09:59:01.467Z,23.00
2023-01-19T10:01:36.762Z,21.83
2023-01-19T10:04:42.503Z,23.30
2023-01-19T10:07:32.953Z,20.87
2023-01-19T10:10:33.371Z,22.33
2023-01-19T10:13:34.459Z,23.10
2023-01-19T10:16:45.813Z,23.47
2023-01-19T10:19:38.192Z,40.07
2023-01-19T10:22:34.243Z,35.10
2023-01-19T10:25:07.868Z,27.97
2023-01-19T10:27:38.088Z,25.40
2023-01-19T10:30:10.292Z,27.05
2023-01-19T10:32:39.515Z,28.13
2023-01-19T10:35:26.131Z,29.97
2023-01-19T10:38:01.735Z,28.07
2023-01-19T10:40:51.887Z,28.40
2023-01-19T10:43:34.584Z,27.77
2023-01-19T10:46:29.056Z,30.60
2023-01-19T10:48:56.714Z,31.30
2023-01-19T10:51:24.135Z,28.77
2023-01-19T10:54:03.515Z,29.40
2023-01-19T10:56:37.213Z,31.20
2023-01-19T10:59:06.969Z,45.20
2023-01-19T11:01:38.222Z,35.90
2023-01-19T11:04:29.445Z,38.90
2023-01-19T11:07:18.830Z,30.53
2023-01-19T11:09:47.657Z,29.83
2023-01-19T11:12:24.481Z,31.10
2023-01-19T11:14:52.416Z,31.40
2023-01-19T11:17:25.346Z,28.50
2023-01-19T11:20:01.705Z,25.30
2023-01-19T11:22:33.192Z,26.13
2023-01-19T11:25:05.089Z,24.40
2023-01-19T11:27:36.341Z,24.40
2023-01-19T11:30:21.561Z,22.33
2023-01-19T11:32:49.467Z,19.90
2023-01-19T11:35:39.777Z,20.00
2023-01-19T11:38:13.160Z,18.45
2023-01-19T11:40:42.019Z,17.63
2023-01-19T11:43:14.057Z,17.47
2023-01-19T11:45:41.635Z,17.60
2023-01-19T11:48:43.148Z,17.83
2023-01-19T11:51:20.037Z,16.03
2023-01-19T11:53:52.830Z,15.80
2023-01-19T11:56:26.373Z,15.50
2023-01-19T11:58:53.815Z,14.60
2023-01-19T12:01:33.210Z,15.90
2023-01-19T12:04:21.861Z,15.47
2023-01-19T12:06:54.501Z,15.97
2023-01-19T12:09:34.169Z,13.33
2023-01-19T12:12:17.210Z,12.93
2023-01-19T12:15:06.903Z,12.03
2023-01-19T12:17:45.548Z,13.10
2023-01-19T12:20:44.687Z,13.27
2023-01-19T12:23:12.016Z,15.43
2023-01-19T12:26:03.203Z,11.90
2023-01-19T12:28:39.274Z,12.13
2023-01-19T12:31:08.090Z,12.87
2023-01-19T12:33:39.713Z,11.47
2023-01-19T12:36:38.769Z,12.10
2023-01-19T12:39:16.935Z,11.83
2023-01-19T12:41:46.068Z,12.13
2023-01-19T12:44:16.531Z,12.87
2023-01-19T12:46:49.256Z,12.73
2023-01-19T12:49:26.432Z,13.77
2023-01-19T12:52:30.752Z,12.20
2023-01-19T12:55:13.269Z,12.23
2023-01-19T12:58:03.963Z,11.53
2023-01-19T13:00:47.159Z,11.75
2023-01-19T13:03:20.475Z,12.40
2023-01-19T13:05:55.497Z,14.67
2023-01-19T13:08:59.171Z,11.80
2023-01-19T13:11:29.380Z,11.97
2023-01-19T13:13:58.555Z,12.47
2023-01-19T13:16:28.904Z,12.13
2023-01-19T13:19:07.902Z,12.10
2023-01-19T13:21:44.702Z,12.13
2023-01-19T13:24:22.819Z,12.30
2023-01-19T13:26:49.988Z,12.73
2023-01-19T13:29:43.023Z,12.83
2023-01-19T13:32:18.884Z,10.47
2023-01-19T13:34:54.682Z,11.27
2023-01-19T13:37:32.871Z,13.60
2023-01-19T13:40:01.132Z,12.37
2023-01-19T13:42:37.642Z,11.87
2023-01-19T13:45:27.876Z,12.23
2023-01-19T13:47:58.533Z,13.23
2023-01-19T13:50:32.985Z,12.77
2023-01-19T13:53:14.437Z,12.93
2023-01-19T13:56:05.365Z,11.67
2023-01-19T14:00:59.924Z,11.90
2023-01-19T14:03:27.404Z,13.47
2023-01-19T14:05:55.690Z,11.93
2023-01-19T14:08:25.678Z,12.47
2023-01-19T14:10:56.452Z,13.40
2023-01-19T14:16:18.608Z,11.67
2023-01-19T14:18:46.115Z,13.10
2023-01-19T14:21:15.963Z,13.80
2023-01-19T14:24:05.613Z,13.60
2023-01-19T14:26:48.983Z,14.07
2023-01-19T14:29:27.950Z,13.60
2023-01-19T14:32:05.671Z,14.40
2023-01-19T14:35:04.216Z,15.17
2023-01-19T14:37:37.654Z,16.23
2023-01-19T14:40:21.657Z,17.57
2023-01-19T14:43:00.422Z,16.43
2023-01-19T14:45:35.427Z,15.83
2023-01-19T14:48:19.353Z,16.30
2023-01-19T14:51:02.388Z,17.80
2023-01-19T14:53:37.345Z,19.67
2023-01-19T14:56:06.870Z,18.37
2023-01-19T14:58:35.987Z,18.47
2023-01-19T15:01:04.755Z,19.97
2023-01-19T15:03:43.967Z,21.33
2023-01-19T15:06:19.495Z,21.83
2023-01-19T15:08:48.880Z,21.73
2023-01-19T15:11:23.601Z,21.93
2023-01-19T15:13:51.819Z,19.10
2023-01-19T15:16:20.053Z,21.40
2023-01-19T15:18:47.414Z,23.67
2023-01-19T15:21:19.621Z,22.30
2023-01-19T15:23:47.697Z,19.40
2023-01-19T15:26:20.886Z,18.30
2023-01-19T15:28:49.451Z,18.87
2023-01-19T15:31:22.974Z,16.77
2023-01-19T15:33:50.578Z,17.20
2023-01-19T15:36:21.012Z,16.07
2023-01-19T15:38:51.065Z,17.10
2023-01-19T15:41:28.050Z,25.60
2023-01-19T15:43:55.519Z,17.03
2023-01-19T15:46:27.600Z,22.77
2023-01-19T15:48:55.086Z,28.67
2023-01-19T15:51:27.894Z,22.07
2023-01-19T15:53:56.157Z,15.67
2023-01-19T15:56:29.456Z,19.90
2023-01-19T15:58:58.707Z,14.97
2023-01-19T16:01:32.891Z,43.30
2023-01-19T16:04:04.058Z,23.27
2023-01-19T16:06:32.513Z,16.13
2023-01-19T16:09:01.354Z,14.63
2023-01-19T16:11:33.778Z,15.77
2023-01-19T16:14:01.708Z,16.87
2023-01-19T16:16:29.498Z,14.70
2023-01-19T16:18:57.583Z,15.30
2023-01-19T16:21:25.284Z,18.13
2023-01-19T16:23:52.740Z,16.00
2023-01-19T16:26:29.202Z,35.50
2023-01-19T16:29:02.885Z,97.97
2023-01-19T16:31:30.587Z,165.40
2023-01-19T16:33:57.793Z,100.20
2023-01-19T16:36:34.053Z,22.63
2023-01-19T16:39:13.895Z,24.63
2023-01-19T16:41:42.425Z,15.63
2023-01-19T16:44:12.393Z,14.07
2023-01-19T16:46:43.469Z,14.27
2023-01-19T16:49:13.311Z,14.83
2023-01-19T16:51:40.902Z,14.77
2023-01-19T16:54:12.285Z,15.87
2023-01-19T16:56:39.595Z,14.97
2023-01-19T16:59:07.114Z,14.63
2023-01-19T17:01:34.492Z,14.27
2023-01-19T17:04:04.888Z,13.23
2023-01-19T17:06:32.708Z,14.05
2023-01-19T17:09:00.205Z,15.30
2023-01-19T17:11:30.240Z,17.67
2023-01-19T17:14:06.456Z,22.42
2023-01-19T17:16:35.261Z,23.70
2023-01-19T17:19:07.254Z,22.97
2023-01-19T17:21:34.953Z,20.57
2023-01-19T17:24:02.301Z,20.87
2023-01-19T17:26:31.167Z,22.33
2023-01-19T17:29:05.997Z,22.57
2023-01-19T17:31:34.576Z,21.87
2023-01-19T17:34:02.623Z,22.63
2023-01-19T17:36:33.040Z,21.43
2023-01-19T17:39:06.210Z,21.10
2023-01-19T17:41:35.425Z,22.90
2023-01-19T17:44:05.290Z,23.63
2023-01-19T17:46:36.947Z,21.00
2023-01-19T17:49:07.783Z,20.77
2023-01-19T17:54:07.384Z,21.40
2023-01-19T17:56:37.684Z,23.73
2023-01-19T17:59:07.976Z,19.88
2023-01-19T18:01:40.606Z,23.48
2023-01-19T18:04:09.527Z,22.53
2023-01-19T18:06:38.041Z,24.13
2023-01-19T18:09:07.447Z,25.10
2023-01-19T18:11:35.541Z,23.30
2023-01-19T18:14:02.955Z,22.80
2023-01-19T18:16:32.862Z,23.47
2023-01-19T18:19:00.226Z,25.02
2023-01-19T18:21:28.866Z,23.67
2023-01-19T18:24:02.514Z,26.10
2023-01-19T18:26:32.145Z,23.40
2023-01-19T18:29:00.386Z,25.13
2023-01-19T18:31:28.777Z,24.93
2023-01-19T18:33:56.695Z,23.77
2023-01-19T18:36:24.016Z,24.90
2023-01-19T18:38:51.657Z,24.90
2023-01-19T18:41:21.117Z,26.13
2023-01-19T18:43:49.387Z,25.90
2023-01-19T18:46:17.340Z,24.70
2023-01-19T18:48:44.879Z,24.43
2023-01-19T18:51:15.641Z,24.57
2023-01-19T18:56:15.884Z,23.70
2023-01-19T18:58:45.811Z,26.53
2023-01-19T19:01:31.560Z,23.73
2023-01-19T19:04:00.007Z,25.67
2023-01-19T19:06:31.092Z,24.60
2023-01-19T19:08:59.493Z,22.67
2023-01-19T19:11:28.222Z,21.17
2023-01-19T19:14:01.817Z,22.17
2023-01-19T19:16:29.956Z,23.17
2023-01-19T19:18:57.337Z,24.10
2023-01-19T19:21:28.207Z,25.47
2023-01-19T19:26:31.373Z,22.90
2023-01-19T19:28:59.769Z,22.33
2023-01-19T19:31:30.799Z,23.43
2023-01-19T19:33:59.724Z,23.67
2023-01-19T19:36:29.280Z,24.10
2023-01-19T19:38:58.346Z,24.47
2023-01-19T19:41:27.699Z,24.13
2023-01-19T19:44:03.030Z,24.30
2023-01-19T19:46:30.793Z,23.03
2023-01-19T19:48:58.378Z,24.47
2023-01-19T19:51:28.213Z,24.60
2023-01-19T19:53:59.138Z,25.02
2023-01-19T19:58:58.064Z,21.67
2023-01-19T20:01:33.466Z,21.50
2023-01-19T20:04:10.788Z,21.30
2023-01-19T20:06:42.086Z,20.80
2023-01-19T20:09:12.744Z,21.00
2023-01-19T20:14:16.507Z,19.63
2023-01-19T20:16:44.083Z,18.70
2023-01-19T20:19:11.655Z,18.50
2023-01-19T20:21:41.963Z,18.73
2023-01-19T20:24:18.598Z,18.33
2023-01-19T20:26:53.082Z,17.50
2023-01-19T20:29:20.904Z,17.73
2023-01-19T20:31:51.973Z,17.83
2023-01-19T20:34:22.111Z,18.67
2023-01-19T20:36:51.385Z,18.58
2023-01-19T20:39:20.151Z,17.83
2023-01-19T20:41:50.876Z,18.00
2023-01-19T20:44:25.824Z,18.30
2023-01-19T20:46:54.986Z,19.73
2023-01-19T20:49:22.719Z,18.27
2023-01-19T20:51:53.682Z,19.00
2023-01-19T20:54:27.169Z,19.57
2023-01-19T20:56:54.542Z,18.67
2023-01-19T20:59:22.656Z,19.17
2023-01-19T21:01:50.638Z,19.90
2023-01-19T21:04:18.823Z,18.63
2023-01-19T21:06:46.296Z,19.03
2023-01-19T21:09:13.725Z,18.93
2023-01-19T21:11:41.117Z,18.40
2023-01-19T21:14:08.640Z,18.80
2023-01-19T21:16:36.980Z,19.03
2023-01-19T21:19:05.257Z,17.83
2023-01-19T21:21:32.561Z,18.47
2023-01-19T21:24:01.968Z,17.70
2023-01-19T21:26:30.338Z,18.17
2023-01-19T21:28:59.710Z,17.87
2023-01-19T21:31:28.440Z,18.33
2023-01-19T21:33:59.326Z,19.17
2023-01-19T21:39:00.626Z,15.20
2023-01-19T21:41:30.228Z,18.07
2023-01-19T21:43:58.714Z,17.37
2023-01-19T21:46:29.696Z,18.13
2023-01-19T21:49:04.006Z,18.10
2023-01-19T21:51:33.641Z,17.93
2023-01-19T21:54:07.320Z,18.43
2023-01-19T21:56:35.650Z,17.70
2023-01-19T21:59:03.624Z,17.13
2023-01-19T22:01:34.482Z,17.67
2023-01-19T22:04:01.931Z,15.93
2023-01-19T22:06:32.230Z,15.37
2023-01-19T22:09:00.794Z,14.70
2023-01-19T22:11:28.869Z,14.77
2023-01-19T22:13:56.287Z,16.20
2023-01-19T22:16:24.152Z,15.87
2023-01-19T22:18:56.338Z,15.10
2023-01-19T22:21:26.825Z,14.43
2023-01-19T22:23:59.278Z,14.88
2023-01-19T22:26:28.909Z,13.30
2023-01-19T22:28:59.146Z,14.37
2023-01-19T22:31:29.427Z,12.95
2023-01-19T22:33:57.339Z,14.18
2023-01-19T22:36:35.498Z,14.73
2023-01-19T22:39:09.262Z,12.43
2023-01-19T22:41:46.116Z,12.87
2023-01-19T22:44:23.080Z,12.83
2023-01-19T22:46:54.463Z,12.63
2023-01-19T22:49:22.085Z,13.63
2023-01-19T22:51:49.551Z,15.50
2023-01-19T22:54:16.890Z,12.93
2023-01-19T22:56:44.170Z,13.27
2023-01-19T22:59:11.585Z,13.93
2023-01-19T23:01:42.906Z,13.73
2023-01-19T23:04:15.854Z,12.47
2023-01-19T23:06:43.867Z,13.97
2023-01-19T23:09:14.105Z,13.43
2023-01-19T23:11:45.287Z,14.15
2023-01-19T23:14:18.962Z,13.37
2023-01-19T23:16:47.362Z,10.90
2023-01-19T23:19:17.135Z,12.73
2023-01-19T23:21:45.397Z,12.37
2023-01-19T23:24:13.170Z,12.23
2023-01-19T23:26:40.457Z,11.73
2023-01-19T23:29:14.209Z,12.00
2023-01-19T23:31:46.727Z,10.37
2023-01-19T23:34:15.423Z,10.70
2023-01-19T23:37:01.324Z,11.43
2023-01-19T23:39:28.787Z,11.13
2023-01-19T23:41:55.932Z,11.83
2023-01-19T23:44:25.947Z,11.55
2023-01-19T23:46:57.435Z,11.83
2023-01-19T23:49:25.483Z,12.43
2023-01-19T23:51:52.745Z,13.23
2023-01-19T23:54:20.112Z,12.80
2023-01-19T23:56:47.371Z,11.90
2023-01-19T23:59:16.649Z,11.90
